Time,TemperatureF,DewpointF,PressureIn,WindDirection,WindDirectionDegrees,WindSpeedMPH,WindSpeedGustMPH,Humidity,HourlyPrecipIn,Conditions,Clouds,dailyrainin,SoftwareType,DateUTC
2013-04-07 00:03:00,28.0,15.0,30.33,NW,306,0.0,3.0,58,-99.99,,,-99.99,,2013-04-07 04:03:00,
2013-04-07 00:14:00,28.0,15.0,30.33,NW,306,0.0,3.0,58,-99.99,,,-99.99,,2013-04-07 04:14:00,
2013-04-07 00:23:00,28.0,15.0,30.34,NW,306,0.0,0.0,58,-99.99,,,-99.99,,2013-04-07 04:23:00,
2013-04-07 00:32:00,28.0,16.0,30.34,NW,306,0.0,2.0,59,-99.99,,,-99.99,,2013-04-07 04:32:00,
2013-04-07 00:43:00,28.0,16.0,30.34,NW,306,0.0,2.0,59,-99.99,,,-99.99,,2013-04-07 04:43:00,
2013-04-07 00:53:00,27.0,15.0,30.34,NW,306,0.0,2.0,61,-99.99,,,-99.99,,2013-04-07 04:53:00,
2013-04-07 01:02:00,27.0,15.0,30.33,NW,306,0.0,1.0,61,-99.99,,,-99.99,,2013-04-07 05:02:00,
2013-04-07 01:12:00,27.0,15.0,30.33,NW,306,0.0,1.0,61,-99.99,,,-99.99,,2013-04-07 05:12:00,
2013-04-07 01:23:00,27.0,16.0,30.33,NW,306,0.0,0.0,62,-99.99,,,-99.99,,2013-04-07 05:23:00,
2013-04-07 01:33:00,27.0,16.0,30.33,NW,306,0.0,0.0,63,-99.99,,,-99.99,,2013-04-07 05:33:00,
2013-04-07 01:43:00,27.0,16.0,30.33,NW,306,0.0,0.0,63,-99.99,,,-99.99,,2013-04-07 05:43:00,
2013-04-07 01:52:00,27.0,16.0,30.32,NW,306,0.0,0.0,64,-99.99,,,-99.99,,2013-04-07 05:52:00,
2013-04-07 02:02:00,27.0,16.0,30.32,NW,306,0.0,0.0,63,-99.99,,,-99.99,,2013-04-07 06:02:00,
2013-04-07 02:12:00,27.0,16.0,30.32,NW,306,0.0,0.0,63,-99.99,,,-99.99,,2013-04-07 06:12:00,
2013-04-07 02:22:00,26.0,16.0,30.32,NW,306,0.0,0.0,66,-99.99,,,-99.99,,2013-04-07 06:22:00,
2013-04-07 02:32:00,26.0,17.0,30.31,NW,306,0.0,0.0,68,-99.99,,,-99.99,,2013-04-07 06:32:00,
2013-04-07 02:42:00,26.0,17.0,30.31,NW,306,0.0,0.0,68,-99.99,,,-99.99,,2013-04-07 06:42:00,
2013-04-07 02:52:00,26.0,17.0,30.31,NW,306,0.0,0.0,69,-99.99,,,-99.99,,2013-04-07 06:52:00,
2013-04-07 03:02:00,26.0,17.0,30.30,NW,306,0.0,0.0,68,-99.99,,,-99.99,,2013-04-07 07:02:00,
2013-04-07 03:12:00,26.0,17.0,30.30,NW,306,0.0,0.0,68,-99.99,,,-99.99,,2013-04-07 07:12:00,
2013-04-07 03:22:00,26.0,18.0,30.29,NW,306,0.0,0.0,70,-99.99,,,-99.99,,2013-04-07 07:22:00,
2013-04-07 03:32:00,26.0,18.0,30.29,NW,306,0.0,0.0,70,-99.99,,,-99.99,,2013-04-07 07:32:00,
2013-04-07 03:42:00,26.0,18.0,30.29,NW,306,0.0,0.0,70,-99.99,,,-99.99,,2013-04-07 07:42:00,
2013-04-07 03:52:00,26.0,19.0,30.29,NW,306,0.0,0.0,74,-99.99,,,-99.99,,2013-04-07 07:52:00,
2013-04-07 04:02:00,26.0,19.0,30.28,NW,306,0.0,0.0,74,-99.99,,,-99.99,,2013-04-07 08:02:00,
2013-04-07 04:12:00,25.0,18.0,30.28,NW,306,0.0,0.0,75,-99.99,,,-99.99,,2013-04-07 08:12:00,
2013-04-07 04:22:00,25.0,18.0,30.28,NW,306,0.0,0.0,75,-99.99,,,-99.99,,2013-04-07 08:22:00,
2013-04-07 04:32:00,25.0,18.0,30.28,NW,306,0.0,0.0,75,-99.99,,,-99.99,,2013-04-07 08:32:00,
2013-04-07 04:42:00,25.0,18.0,30.28,NW,306,0.0,0.0,75,-99.99,,,-99.99,,2013-04-07 08:42:00,
2013-04-07 04:53:00,25.0,19.0,30.28,NW,306,0.0,0.0,76,-99.99,,,-99.99,,2013-04-07 08:53:00,
2013-04-07 05:02:00,25.0,19.0,30.29,NW,306,0.0,0.0,76,-99.99,,,-99.99,,2013-04-07 09:02:00,
2013-04-07 05:12:00,25.0,19.0,30.29,NW,306,0.0,0.0,76,-99.99,,,-99.99,,2013-04-07 09:12:00,
2013-04-07 05:22:00,25.0,19.0,30.29,NW,306,0.0,0.0,77,-99.99,,,-99.99,,2013-04-07 09:22:00,
2013-04-07 05:33:00,25.0,19.0,30.29,NW,306,0.0,0.0,77,-99.99,,,-99.99,,2013-04-07 09:33:00,
2013-04-07 05:43:00,25.0,19.0,30.29,NW,306,0.0,0.0,77,-99.99,,,-99.99,,2013-04-07 09:43:00,
2013-04-07 05:54:00,24.0,18.0,30.29,NW,306,0.0,0.0,78,-99.99,,,-99.99,,2013-04-07 09:54:00,
2013-04-07 06:04:00,24.0,18.0,30.29,NW,306,0.0,0.0,78,-99.99,,,-99.99,,2013-04-07 10:04:00,
2013-04-07 06:14:00,24.0,18.0,30.29,NW,306,0.0,0.0,78,-99.99,,,-99.99,,2013-04-07 10:14:00,
2013-04-07 06:23:00,24.0,18.0,30.29,NW,306,0.0,0.0,79,-99.99,,,-99.99,,2013-04-07 10:23:00,
2013-04-07 06:33:00,24.0,19.0,30.29,NW,306,0.0,0.0,80,-99.99,,,-99.99,,2013-04-07 10:33:00,
2013-04-07 06:43:00,24.0,19.0,30.29,NW,306,0.0,0.0,80,-99.99,,,-99.99,,2013-04-07 10:43:00,
2013-04-07 06:54:00,24.0,19.0,30.30,NW,306,0.0,0.0,80,-99.99,,,-99.99,,2013-04-07 10:54:00,
2013-04-07 07:03:00,24.0,19.0,30.30,NW,306,0.0,0.0,80,-99.99,,,-99.99,,2013-04-07 11:03:00,
2013-04-07 07:12:00,24.0,19.0,30.30,NW,306,0.0,0.0,80,-99.99,,,-99.99,,2013-04-07 11:12:00,
2013-04-07 07:23:00,24.0,19.0,30.30,NW,306,0.0,0.0,81,-99.99,,,-99.99,,2013-04-07 11:23:00,
2013-04-07 07:33:00,24.0,19.0,30.31,NW,306,0.0,0.0,81,-99.99,,,-99.99,,2013-04-07 11:33:00,
2013-04-07 07:42:00,24.0,19.0,30.31,NW,306,0.0,0.0,81,-99.99,,,-99.99,,2013-04-07 11:42:00,
2013-04-07 07:53:00,25.0,20.0,30.32,NW,306,0.0,0.0,82,-99.99,,,-99.99,,2013-04-07 11:53:00,
2013-04-07 08:02:00,26.0,21.0,30.32,NW,306,0.0,0.0,81,-99.99,,,-99.99,,2013-04-07 12:02:00,
2013-04-07 08:12:00,26.0,21.0,30.32,NW,306,0.0,0.0,81,-99.99,,,-99.99,,2013-04-07 12:12:00,
2013-04-07 08:23:00,28.0,22.0,30.32,NW,306,0.0,0.0,77,-99.99,,,-99.99,,2013-04-07 12:23:00,
2013-04-07 08:34:00,30.0,23.0,30.32,NW,306,0.0,0.0,76,-99.99,,,-99.99,,2013-04-07 12:34:00,
2013-04-07 08:43:00,30.0,23.0,30.32,NW,306,0.0,0.0,76,-99.99,,,-99.99,,2013-04-07 12:43:00,
2013-04-07 08:54:00,33.0,25.0,30.31,NW,306,0.0,1.0,71,-99.99,,,-99.99,,2013-04-07 12:54:00,
2013-04-07 09:04:00,34.0,26.0,30.30,NW,306,0.0,3.0,71,-99.99,,,-99.99,,2013-04-07 13:04:00,
2013-04-07 09:13:00,34.0,26.0,30.30,NW,306,0.0,3.0,71,-99.99,,,-99.99,,2013-04-07 13:13:00,
2013-04-07 09:23:00,38.0,27.0,30.29,South,178,4.0,6.0,63,-99.99,,,-99.99,,2013-04-07 13:23:00,
2013-04-07 09:32:00,41.0,28.0,30.28,SE,143,5.0,9.0,59,-99.99,,,-99.99,,2013-04-07 13:32:00,
2013-04-07 09:42:00,41.0,28.0,30.28,SE,143,5.0,9.0,59,-99.99,,,-99.99,,2013-04-07 13:42:00,
2013-04-07 09:53:00,43.0,26.0,30.27,South,179,5.0,10.0,51,-99.99,,,-99.99,,2013-04-07 13:53:00,
2013-04-07 10:02:00,45.0,27.0,30.27,South,183,5.0,9.0,49,-99.99,,,-99.99,,2013-04-07 14:02:00,
2013-04-07 10:12:00,45.0,27.0,30.27,South,183,5.0,9.0,49,-99.99,,,-99.99,,2013-04-07 14:12:00,
2013-04-07 10:23:00,45.0,24.0,30.26,SSE,160,6.0,18.0,44,-99.99,,,-99.99,,2013-04-07 14:23:00,
2013-04-07 10:33:00,46.0,23.0,30.26,SE,145,5.0,14.0,40,-99.99,,,-99.99,,2013-04-07 14:33:00,
2013-04-07 10:43:00,46.0,23.0,30.26,SE,145,5.0,14.0,40,-99.99,,,-99.99,,2013-04-07 14:43:00,
2013-04-07 10:54:00,47.0,21.0,30.24,SW,223,8.0,18.0,36,-99.99,,,-99.99,,2013-04-07 14:54:00,
2013-04-07 11:03:00,47.0,21.0,30.24,SE,141,8.0,21.0,35,-99.99,,,-99.99,,2013-04-07 15:03:00,
2013-04-07 11:13:00,47.0,21.0,30.23,SE,141,8.0,13.0,36,-99.99,,,-99.99,,2013-04-07 15:13:00,
2013-04-07 11:22:00,47.0,21.0,30.23,SE,141,8.0,13.0,36,-99.99,,,-99.99,,2013-04-07 15:22:00,
2013-04-07 11:34:00,48.0,23.0,30.22,South,190,7.0,16.0,37,-99.99,,,-99.99,,2013-04-07 15:34:00,
2013-04-07 11:45:00,48.0,23.0,30.22,South,190,7.0,16.0,37,-99.99,,,-99.99,,2013-04-07 15:45:00,
2013-04-07 11:55:00,48.0,22.0,30.21,SE,136,13.0,23.0,36,-99.99,,,-99.99,,2013-04-07 15:55:00,
2013-04-07 12:04:00,48.0,22.0,30.19,SSE,167,9.0,21.0,36,-99.99,,,-99.99,,2013-04-07 16:04:00,
2013-04-07 12:13:00,48.0,22.0,30.19,SSE,167,9.0,21.0,36,-99.99,,,-99.99,,2013-04-07 16:13:00,
2013-04-07 12:25:00,48.0,23.0,30.18,South,169,6.0,15.0,37,-99.99,,,-99.99,,2013-04-07 16:25:00,
2013-04-07 12:33:00,49.0,26.0,30.17,South,187,8.0,14.0,40,-99.99,,,-99.99,,2013-04-07 16:33:00,
2013-04-07 12:43:00,49.0,26.0,30.17,South,187,8.0,14.0,40,-99.99,,,-99.99,,2013-04-07 16:43:00,
2013-04-07 12:54:00,51.0,26.0,30.16,South,187,9.0,19.0,37,-99.99,,,-99.99,,2013-04-07 16:54:00,
2013-04-07 13:04:00,51.0,25.0,30.15,SE,144,16.0,23.0,36,-99.99,,,-99.99,,2013-04-07 17:04:00,
2013-04-07 13:13:00,51.0,25.0,30.15,SE,144,16.0,23.0,36,-99.99,,,-99.99,,2013-04-07 17:13:00,
2013-04-07 13:23:00,51.0,26.0,30.14,SSE,165,11.0,22.0,37,-99.99,,,-99.99,,2013-04-07 17:23:00,
2013-04-07 13:33:00,51.0,27.0,30.13,SW,216,8.0,22.0,39,-99.99,,,-99.99,,2013-04-07 17:33:00,
2013-04-07 13:43:00,51.0,27.0,30.13,SW,216,8.0,22.0,39,-99.99,,,-99.99,,2013-04-07 17:43:00,
2013-04-07 13:54:00,51.0,28.0,30.12,ESE,118,12.0,24.0,41,-99.99,,,-99.99,,2013-04-07 17:54:00,
2013-04-07 14:02:00,52.0,29.0,30.11,SE,132,8.0,21.0,41,-99.99,,,-99.99,,2013-04-07 18:02:00,
2013-04-07 14:13:00,52.0,29.0,30.11,SE,132,8.0,21.0,41,-99.99,,,-99.99,,2013-04-07 18:13:00,
2013-04-07 14:23:00,52.0,30.0,30.10,South,178,7.0,15.0,42,-99.99,,,-99.99,,2013-04-07 18:23:00,
2013-04-07 14:33:00,53.0,29.0,30.09,South,179,13.0,23.0,40,-99.99,,,-99.99,,2013-04-07 18:33:00,
2013-04-07 14:43:00,53.0,29.0,30.09,South,179,13.0,23.0,40,-99.99,,,-99.99,,2013-04-07 18:43:00,
2013-04-07 14:53:00,53.0,29.0,30.08,SE,137,8.0,19.0,40,-99.99,,,-99.99,,2013-04-07 18:53:00,
2013-04-07 15:03:00,53.0,30.0,30.07,SE,138,9.0,23.0,41,-99.99,,,-99.99,,2013-04-07 19:03:00,
2013-04-07 15:12:00,53.0,30.0,30.07,SE,138,9.0,23.0,41,-99.99,,,-99.99,,2013-04-07 19:12:00,
2013-04-07 15:22:00,54.0,30.0,30.05,SSW,207,14.0,23.0,40,-99.99,,,-99.99,,2013-04-07 19:22:00,
2013-04-07 15:32:00,54.0,31.0,30.05,SE,137,13.0,23.0,42,-99.99,,,-99.99,,2013-04-07 19:32:00,
2013-04-07 15:42:00,54.0,31.0,30.05,SE,137,13.0,23.0,42,-99.99,,,-99.99,,2013-04-07 19:42:00,
2013-04-07 15:55:00,54.0,31.0,30.04,South,169,12.0,17.0,41,-99.99,,,-99.99,,2013-04-07 19:55:00,
2013-04-07 16:03:00,55.0,32.0,30.04,South,177,13.0,21.0,41,-99.99,,,-99.99,,2013-04-07 20:03:00,
2013-04-07 16:13:00,55.0,32.0,30.04,South,177,13.0,21.0,41,-99.99,,,-99.99,,2013-04-07 20:13:00,
2013-04-07 16:22:00,55.0,34.0,30.02,ESE,120,11.0,19.0,45,-99.99,,,-99.99,,2013-04-07 20:22:00,
2013-04-07 16:33:00,54.0,34.0,30.01,SSE,159,11.0,22.0,47,-99.99,,,-99.99,,2013-04-07 20:33:00,
2013-04-07 16:43:00,54.0,34.0,30.01,SSE,159,11.0,22.0,47,-99.99,,,-99.99,,2013-04-07 20:43:00,
2013-04-07 16:54:00,54.0,35.0,30.01,South,173,15.0,21.0,48,-99.99,,,-99.99,,2013-04-07 20:54:00,
2013-04-07 17:03:00,54.0,36.0,30.00,SSE,155,14.0,22.0,50,-99.99,,,-99.99,,2013-04-07 21:03:00,
2013-04-07 17:13:00,54.0,36.0,30.00,SSE,155,14.0,22.0,50,-99.99,,,-99.99,,2013-04-07 21:13:00,
2013-04-07 17:22:00,53.0,36.0,29.97,South,175,13.0,21.0,53,-99.99,,,-99.99,,2013-04-07 21:22:00,
2013-04-07 17:34:00,52.0,35.0,29.98,SSE,160,12.0,21.0,53,-99.99,,,-99.99,,2013-04-07 21:34:00,
2013-04-07 17:44:00,52.0,35.0,29.98,SSE,160,12.0,21.0,53,-99.99,,,-99.99,,2013-04-07 21:44:00,
2013-04-07 17:55:00,52.0,36.0,29.98,SE,146,16.0,23.0,54,-99.99,,,-99.99,,2013-04-07 21:55:00,
2013-04-07 18:04:00,52.0,36.0,29.98,SW,233,8.0,15.0,55,-99.99,,,-99.99,,2013-04-07 22:04:00,
2013-04-07 18:14:00,52.0,36.0,29.98,SW,233,8.0,15.0,55,-99.99,,,-99.99,,2013-04-07 22:14:00,
2013-04-07 18:23:00,52.0,37.0,29.99,SE,144,9.0,14.0,57,-99.99,,,-99.99,,2013-04-07 22:23:00,
2013-04-07 18:34:00,52.0,37.0,30.00,SSE,161,7.0,15.0,57,-99.99,,,-99.99,,2013-04-07 22:34:00,
2013-04-07 18:43:00,52.0,37.0,30.00,SSE,161,7.0,15.0,57,-99.99,,,-99.99,,2013-04-07 22:43:00,
2013-04-07 18:53:00,51.0,36.0,30.01,WSW,238,5.0,15.0,57,-99.99,,,-99.99,,2013-04-07 22:53:00,
2013-04-07 19:03:00,51.0,37.0,30.01,South,182,4.0,18.0,58,-99.99,,,-99.99,,2013-04-07 23:03:00,
2013-04-07 19:13:00,51.0,37.0,30.01,South,182,4.0,18.0,58,-99.99,,,-99.99,,2013-04-07 23:13:00,
2013-04-07 19:22:00,51.0,35.0,30.00,SSE,166,6.0,15.0,55,-99.99,,,-99.99,,2013-04-07 23:22:00,
2013-04-07 19:32:00,51.0,35.0,30.00,SSE,149,5.0,12.0,55,-99.99,,,-99.99,,2013-04-07 23:32:00,
2013-04-07 19:43:00,51.0,35.0,30.00,SSE,149,5.0,12.0,55,-99.99,,,-99.99,,2013-04-07 23:43:00,
2013-04-07 19:53:00,51.0,35.0,30.01,SSE,168,11.0,20.0,55,-99.99,,,-99.99,,2013-04-07 23:53:00,
2013-04-07 20:02:00,51.0,36.0,30.01,South,174,4.0,18.0,56,-99.99,,,-99.99,,2013-04-08 00:02:00,
2013-04-07 20:12:00,51.0,36.0,30.01,South,174,4.0,18.0,56,-99.99,,,-99.99,,2013-04-08 00:12:00,
2013-04-07 20:22:00,50.0,35.0,30.01,SSW,209,4.0,11.0,57,-99.99,,,-99.99,,2013-04-08 00:22:00,
2013-04-07 20:32:00,50.0,36.0,30.01,South,179,7.0,14.0,58,-99.99,,,-99.99,,2013-04-08 00:32:00,
2013-04-07 20:42:00,50.0,36.0,30.01,South,179,7.0,14.0,58,-99.99,,,-99.99,,2013-04-08 00:42:00,
2013-04-07 20:53:00,49.0,35.0,30.01,South,173,5.0,19.0,59,-99.99,,,-99.99,,2013-04-08 00:53:00,
2013-04-07 21:03:00,49.0,36.0,30.01,South,179,5.0,12.0,60,-99.99,,,-99.99,,2013-04-08 01:03:00,
2013-04-07 21:12:00,49.0,36.0,30.01,South,179,5.0,12.0,60,-99.99,,,-99.99,,2013-04-08 01:12:00,
2013-04-07 21:23:00,49.0,37.0,30.01,SW,228,8.0,12.0,63,-99.99,,,-99.99,,2013-04-08 01:23:00,
2013-04-07 21:33:00,48.0,36.0,30.01,SSW,200,6.0,12.0,64,-99.99,,,-99.99,,2013-04-08 01:33:00,
2013-04-07 21:43:00,48.0,36.0,30.01,SSW,200,6.0,12.0,64,-99.99,,,-99.99,,2013-04-08 01:43:00,
2013-04-07 21:55:00,48.0,37.0,30.01,SSE,155,4.0,12.0,66,-99.99,,,-99.99,,2013-04-08 01:55:00,
2013-04-07 22:03:00,48.0,38.0,30.00,South,178,7.0,10.0,68,-99.99,,,-99.99,,2013-04-08 02:03:00,
2013-04-07 22:12:00,48.0,38.0,30.00,South,178,7.0,10.0,68,-99.99,,,-99.99,,2013-04-08 02:12:00,
2013-04-07 22:22:00,48.0,39.0,30.00,South,173,5.0,14.0,70,-99.99,,,-99.99,,2013-04-08 02:22:00,
2013-04-07 22:33:00,48.0,39.0,30.00,SSE,157,1.0,17.0,70,-99.99,,,-99.99,,2013-04-08 02:33:00,
2013-04-07 22:47:00,48.0,39.0,30.00,SSE,157,1.0,17.0,70,-99.99,,,-99.99,,2013-04-08 02:47:00,
2013-04-07 23:08:00,47.0,38.0,29.99,SSE,167,8.0,15.0,72,-99.99,,,-99.99,,2013-04-08 03:08:00,
2013-04-07 23:15:00,47.0,38.0,29.99,SSE,167,8.0,15.0,72,-99.99,,,-99.99,,2013-04-08 03:15:00,
2013-04-07 23:25:00,47.0,39.0,29.98,South,184,5.0,14.0,73,-99.99,,,-99.99,,2013-04-08 03:25:00,
2013-04-07 23:34:00,47.0,39.0,29.98,South,182,3.0,15.0,73,-99.99,,,-99.99,,2013-04-08 03:34:00,
2013-04-07 23:47:00,47.0,39.0,29.98,South,182,3.0,15.0,73,-99.99,,,-99.99,,2013-04-08 03:47:00,
2013-04-07 23:58:00,47.0,39.0,29.98,South,185,6.0,9.0,74,-99.99,,,-99.99,,2013-04-08 03:58:00,